Time;durP1;ratioP1;P1;durP2;ratioP2;P2;SDS_P1;SDS_P2;PMS_P1;PMS_P2;Temp;Humidity;BMP_temperature;BMP_pressure;BME280_temperature;BME280_humidity;BME280_pressure;Samples;Min_cycle;Max_cycle;Signal;HPM_P1;HPM_P2
2022/12/05 01:21:37;;;;;;;;;;;;;;;;;;5253248;23;19926;-85
2022/12/05 01:24:03;;;;;;;;;;;;;;;;;;4948036;29;19903;-85
2022/12/05 01:26:29;;;;;;;;;;;;;;;;;;4948134;28;19919;-84
2022/12/05 01:28:55;;;;;;;;;;;;;;;;;;4964273;28;19926;-81
2022/12/05 01:31:21;;;;;;;;;;;;;;;;;;4963384;28;19923;-84
2022/12/05 02:11:34;;;;;;;;;;;;;;;;;;6011295;23;19921;-87
2022/12/05 02:22:23;;;;;;;;;;;;;;;;;;5286793;23;19926;-81
2022/12/05 02:24:49;;;;;;;;;;;;;;;;;;4956356;29;19914;-80
2022/12/05 02:27:14;;;;;;;;;;;;;;;;;;4956936;29;19918;-81
2022/12/05 02:29:40;;;;;;;;;;;;;;;;;;4958208;29;19915;-80
2022/12/05 02:32:05;;;;;;;;;;;;;;;;;;4945675;29;19916;-82
2022/12/05 02:34:30;;;;;;;;;;;;;;;;;;4938020;29;19922;-80
2022/12/05 02:36:56;;;;;;;;;;;;;;;;;;4940695;29;19970;-81
2022/12/05 02:39:21;;;;;;;;;;;;;;;;;;4941315;29;20281;-81
2022/12/05 02:41:47;;;;;;;;;;;;;;;;;;4940488;29;20366;-81
2022/12/05 02:44:12;;;;;;;;;;;;;;;;;;4940376;29;19915;-81
2022/12/05 02:46:38;;;;;;;;;;;;;;;;;;4941817;29;20322;-81
2022/12/05 02:49:03;;;;;;;;;;;;;;;;;;4946952;29;19958;-80
2022/12/05 02:51:28;;;;;;;;;;;;;;;;;;4940116;29;20286;-80
2022/12/05 02:53:54;;;;;;;;;;;;;;;;;;4939734;29;19911;-80
2022/12/05 02:56:19;;;;;;;;;;;;;;;;;;4940380;29;19915;-80
2022/12/05 02:58:44;;;;;;;;;;;;;;;;;;4936740;29;19931;-80
2022/12/05 03:01:10;;;;;;;;;;;;;;;;;;4937060;29;19973;-80
2022/12/05 03:03:35;;;;;;;;;;;;;;;;;;4936179;29;19914;-80
2022/12/05 03:06:01;;;;;;;;;;;;;;;;;;4951432;29;19918;-80
2022/12/05 03:08:26;;;;;;;;;;;;;;;;;;4948921;29;19919;-80
2022/12/05 03:10:51;;;;;;;;;;;;;;;;;;4938253;29;20295;-81
2022/12/05 03:13:17;;;;;;;;;;;;;;;;;;4938001;29;19942;-81
2022/12/05 03:15:42;;;;;;;;;;;;;;;;;;4938972;29;20306;-80
2022/12/05 03:18:07;;;;;;;;;;;;;;;;;;4941664;29;19915;-80
2022/12/05 03:20:33;;;;;;;;;;;;;;;;;;4941324;29;19950;-81
2022/12/05 03:22:59;;;;;;;;;;;;;;;;;;4956311;29;19918;-80
2022/12/05 03:25:24;;;;;;;;;;;;;;;;;;4958049;28;19914;-80
2022/12/05 03:27:50;;;;;;;;;;;;;;;;;;4958535;28;19919;-79
2022/12/05 03:30:16;;;;;;;;;;;;;;;;;;4957020;29;19915;-81
2022/12/05 03:32:41;;;;;;;;;;;;;;;;;;4958536;29;20397;-81
2022/12/05 03:35:07;;;;;;;;;;;;;;;;;;4943094;29;19937;-80
2022/12/05 03:37:32;;;;;;;;;;;;;;;;;;4960848;29;19918;-79
2022/12/05 03:39:57;;;;;;;;;;;;;;;;;;4954287;29;19922;-81
2022/12/05 03:42:23;;;;;;;;;;;;;;;;;;4960223;29;19915;-81
2022/12/05 03:44:48;;;;;;;;;;;;;;;;;;4959957;29;19920;-81
2022/12/05 03:47:14;;;;;;;;;;;;;;;;;;4959835;29;19982;-81
2022/12/05 03:49:39;;;;;;;;;;;;;;;;;;4959519;29;19914;-81
2022/12/05 03:52:04;;;;;;;;;;;;;;;;;;4958060;29;19914;-79
2022/12/05 03:54:30;;;;;;;;;;;;;;;;;;4959569;28;19942;-80
2022/12/05 03:56:55;;;;;;;;;;;;;;;;;;4944626;29;19911;-81
2022/12/05 03:59:21;;;;;;;;;;;;;;;;;;4939535;29;19915;-81
2022/12/05 04:01:46;;;;;;;;;;;;;;;;;;4939352;29;20398;-81
2022/12/05 04:04:11;;;;;;;;;;;;;;;;;;4939041;29;19950;-80
2022/12/05 04:06:37;;;;;;;;;;;;;;;;;;4938379;29;19969;-80
2022/12/05 04:09:02;;;;;;;;;;;;;;;;;;4938614;29;19997;-81
2022/12/05 04:11:28;;;;;;;;;;;;;;;;;;4939819;29;19923;-81
2022/12/05 04:13:53;;;;;;;;;;;;;;;;;;4946641;29;19915;-81
2022/12/05 04:19:02;;;;;;;;;;;;;;;;;;4925243;29;20413;-81
2022/12/05 04:21:37;;;;;;;;;;;;;;;;;;4939245;29;19919;-81
2022/12/05 04:26:46;;;;;;;;;;;;;;;;;;4941204;29;19919;-81
2022/12/05 04:29:12;;;;;;;;;;;;;;;;;;4939836;29;19961;-80
2022/12/05 04:31:37;;;;;;;;;;;;;;;;;;4947913;29;19915;-81
2022/12/05 04:34:04;;;;;;;;;;;;;;;;;;4938621;29;19919;-80
2022/12/05 04:36:29;;;;;;;;;;;;;;;;;;4939596;29;19997;-80
2022/12/05 04:38:54;;;;;;;;;;;;;;;;;;4940120;29;19953;-81
2022/12/05 04:41:20;;;;;;;;;;;;;;;;;;4939903;29;20326;-80
2022/12/05 04:43:45;;;;;;;;;;;;;;;;;;4939532;29;20440;-79
2022/12/05 04:46:11;;;;;;;;;;;;;;;;;;4941142;29;19922;-81
2022/12/05 04:48:36;;;;;;;;;;;;;;;;;;4954537;29;20276;-80
2022/12/05 04:51:01;;;;;;;;;;;;;;;;;;4938137;29;20465;-81
2022/12/05 04:53:27;;;;;;;;;;;;;;;;;;4938335;29;19961;-80
2022/12/05 04:55:52;;;;;;;;;;;;;;;;;;4938906;29;20389;-81
2022/12/05 04:58:17;;;;;;;;;;;;;;;;;;4938629;29;20481;-81
2022/12/05 05:00:43;;;;;;;;;;;;;;;;;;4937864;29;19938;-81
2022/12/05 05:03:08;;;;;;;;;;;;;;;;;;4939661;29;19922;-81
2022/12/05 05:05:34;;;;;;;;;;;;;;;;;;4938812;29;19926;-81
2022/12/05 05:07:59;;;;;;;;;;;;;;;;;;4940718;29;19915;-81
2022/12/05 05:10:24;;;;;;;;;;;;;;;;;;4939675;29;19915;-81
2022/12/05 05:12:50;;;;;;;;;;;;;;;;;;4942357;29;19937;-82
2022/12/05 05:15:15;;;;;;;;;;;;;;;;;;4929646;29;19919;-80
2022/12/05 05:17:41;;;;;;;;;;;;;;;;;;4941070;29;20005;-81
2022/12/05 05:20:25;;;;;;;;;;;;;;;;;;4950627;29;20421;-80
2022/12/05 05:22:51;;;;;;;;;;;;;;;;;;4906145;29;19944;-81
2022/12/05 05:25:17;;;;;;;;;;;;;;;;;;4922125;29;19911;-80
2022/12/05 05:27:42;;;;;;;;;;;;;;;;;;4920864;29;19919;-81
2022/12/05 05:30:08;;;;;;;;;;;;;;;;;;4924201;29;19922;-81
2022/12/05 05:32:33;;;;;;;;;;;;;;;;;;4923354;29;20398;-81
2022/12/05 05:34:58;;;;;;;;;;;;;;;;;;4924164;29;19915;-81
2022/12/05 05:37:24;;;;;;;;;;;;;;;;;;4923121;29;19911;-81
2022/12/05 05:39:49;;;;;;;;;;;;;;;;;;4938543;29;19915;-80
2022/12/05 05:42:15;;;;;;;;;;;;;;;;;;4942831;29;19982;-81
2022/12/05 05:44:40;;;;;;;;;;;;;;;;;;4943032;29;20009;-81
2022/12/05 05:47:05;;;;;;;;;;;;;;;;;;4943169;29;19919;-81
2022/12/05 05:49:31;;;;;;;;;;;;;;;;;;4942961;29;19946;-81
2022/12/05 05:51:56;;;;;;;;;;;;;;;;;;4942696;29;20306;-81
2022/12/05 05:54:22;;;;;;;;;;;;;;;;;;4925573;29;20362;-81
2022/12/05 05:56:47;;;;;;;;;;;;;;;;;;4943611;29;19915;-81
2022/12/05 05:59:12;;;;;;;;;;;;;;;;;;4957388;29;20301;-81
2022/12/05 06:01:38;;;;;;;;;;;;;;;;;;4961827;29;19914;-81
2022/12/05 06:04:03;;;;;;;;;;;;;;;;;;4961866;28;19914;-81
2022/12/05 06:06:29;;;;;;;;;;;;;;;;;;4966788;28;19918;-81
2022/12/05 06:08:54;;;;;;;;;;;;;;;;;;4953438;29;20441;-81
2022/12/05 06:11:20;;;;;;;;;;;;;;;;;;4945977;29;19926;-81
2022/12/05 06:13:45;;;;;;;;;;;;;;;;;;4949105;29;19921;-81
2022/12/05 06:16:11;;;;;;;;;;;;;;;;;;4945745;29;19939;-81
2022/12/05 06:18:36;;;;;;;;;;;;;;;;;;4945982;29;20401;-81
2022/12/05 06:21:02;;;;;;;;;;;;;;;;;;4930508;29;19919;-81
2022/12/05 06:23:28;;;;;;;;;;;;;;;;;;4946242;29;19925;-82
2022/12/05 06:25:53;;;;;;;;;;;;;;;;;;4945869;29;20340;-81
2022/12/05 06:28:19;;;;;;;;;;;;;;;;;;4932678;29;19915;-81
2022/12/05 06:30:44;;;;;;;;;;;;;;;;;;4951122;29;20379;-81
2022/12/05 06:33:09;;;;;;;;;;;;;;;;;;4957248;29;19914;-81
2022/12/05 06:35:35;;;;;;;;;;;;;;;;;;4968238;29;19915;-82
2022/12/05 06:38:00;;;;;;;;;;;;;;;;;;4966927;29;19952;-81
2022/12/05 06:40:26;;;;;;;;;;;;;;;;;;4963805;29;19919;-81
2022/12/05 06:42:51;;;;;;;;;;;;;;;;;;4960976;29;19922;-80
2022/12/05 06:45:16;;;;;;;;;;;;;;;;;;4959729;29;19922;-80
2022/12/05 06:47:42;;;;;;;;;;;;;;;;;;4960155;29;19966;-81
2022/12/05 06:50:07;;;;;;;;;;;;;;;;;;4960412;28;20382;-80
2022/12/05 06:52:33;;;;;;;;;;;;;;;;;;4964153;29;19992;-80
2022/12/05 06:54:58;;;;;;;;;;;;;;;;;;4963820;29;19941;-81
2022/12/05 06:57:24;;;;;;;;;;;;;;;;;;4966699;28;20358;-81
2022/12/05 06:59:49;;;;;;;;;;;;;;;;;;4964810;29;19926;-81
2022/12/05 07:02:14;;;;;;;;;;;;;;;;;;4965329;29;20263;-81
2022/12/05 07:04:40;;;;;;;;;;;;;;;;;;4965024;29;19915;-80
2022/12/05 07:07:05;;;;;;;;;;;;;;;;;;4939312;29;19923;-81
2022/12/05 07:12:15;;;;;;;;;;;;;;;;;;4947840;29;19914;-81
2022/12/05 07:14:40;;;;;;;;;;;;;;;;;;4949006;29;19938;-81
2022/12/05 07:17:06;;;;;;;;;;;;;;;;;;4935348;29;19931;-81
2022/12/05 07:19:31;;;;;;;;;;;;;;;;;;4950080;29;20335;-81
2022/12/05 07:21:57;;;;;;;;;;;;;;;;;;4952013;29;19926;-81
2022/12/05 07:24:22;;;;;;;;;;;;;;;;;;4937984;29;19926;-81
2022/12/05 07:26:47;;;;;;;;;;;;;;;;;;4932479;29;19986;-80
2022/12/05 07:29:13;;;;;;;;;;;;;;;;;;4949276;29;19925;-81
2022/12/05 07:31:38;;;;;;;;;;;;;;;;;;4947678;29;19914;-81
2022/12/05 07:34:04;;;;;;;;;;;;;;;;;;4947367;29;19965;-79
2022/12/05 07:36:31;;;;;;;;;;;;;;;;;;4947926;29;19915;-81
2022/12/05 07:38:56;;;;;;;;;;;;;;;;;;4950154;29;19937;-81
2022/12/05 07:41:22;;;;;;;;;;;;;;;;;;4953276;29;19915;-81
2022/12/05 07:43:47;;;;;;;;;;;;;;;;;;4950780;29;20377;-81
2022/12/05 07:46:13;;;;;;;;;;;;;;;;;;4946291;29;20100;-81
2022/12/05 07:48:38;;;;;;;;;;;;;;;;;;4945317;29;19970;-81
2022/12/05 07:51:03;;;;;;;;;;;;;;;;;;4941873;29;19935;-80
2022/12/05 07:53:29;;;;;;;;;;;;;;;;;;4943263;29;19915;-81
2022/12/05 07:55:54;;;;;;;;;;;;;;;;;;4925360;29;20458;-81
2022/12/05 07:58:20;;;;;;;;;;;;;;;;;;4945621;29;19994;-81
2022/12/05 08:00:45;;;;;;;;;;;;;;;;;;4942708;29;19934;-82
2022/12/05 08:03:11;;;;;;;;;;;;;;;;;;4927423;29;19919;-81
2022/12/05 08:05:37;;;;;;;;;;;;;;;;;;4944334;29;19915;-81
2022/12/05 08:08:02;;;;;;;;;;;;;;;;;;4942192;29;19919;-80
2022/12/05 08:10:28;;;;;;;;;;;;;;;;;;4941363;29;19978;-81
2022/12/05 08:12:53;;;;;;;;;;;;;;;;;;4943488;29;20298;-81
2022/12/05 08:15:18;;;;;;;;;;;;;;;;;;4953488;29;19925;-81
2022/12/05 08:17:44;;;;;;;;;;;;;;;;;;4949184;29;19915;-82
2022/12/05 08:20:09;;;;;;;;;;;;;;;;;;4959396;29;19923;-80
2022/12/05 08:38:54;;;;;;;;;;;;;;;;;;5877248;23;19974;-82
2022/12/05 08:41:20;;;;;;;;;;;;;;;;;;4958903;29;19925;-78
2022/12/05 08:43:45;;;;;;;;;;;;;;;;;;4957261;29;19915;-78
2022/12/05 08:46:10;;;;;;;;;;;;;;;;;;4935960;29;19923;-78
2022/12/05 08:48:36;;;;;;;;;;;;;;;;;;4945144;29;19918;-78
2022/12/05 08:51:01;;;;;;;;;;;;;;;;;;4939494;29;20370;-78
2022/12/05 08:53:26;;;;;;;;;;;;;;;;;;4955258;28;19945;-80
2022/12/05 08:55:52;;;;;;;;;;;;;;;;;;4965710;29;19977;-81
2022/12/05 08:58:17;;;;;;;;;;;;;;;;;;4962089;28;20306;-81
2022/12/05 09:00:43;;;;;;;;;;;;;;;;;;4960124;29;19999;-80
2022/12/05 09:03:08;;;;;;;;;;;;;;;;;;4959211;28;20358;-82
2022/12/05 09:05:33;;;;;;;;;;;;;;;;;;4955724;29;19919;-81
2022/12/05 09:07:59;;;;;;;;;;;;;;;;;;4955369;29;19915;-81
2022/12/05 09:10:24;;;;;;;;;;;;;;;;;;4958736;28;20315;-81
2022/12/05 09:12:50;;;;;;;;;;;;;;;;;;4955922;28;19941;-80
2022/12/05 09:15:15;;;;;;;;;;;;;;;;;;4957906;29;20310;-81
2022/12/05 09:17:41;;;;;;;;;;;;;;;;;;4942542;29;19915;-81
2022/12/05 09:20:07;;;;;;;;;;;;;;;;;;4958283;29;19915;-80
2022/12/05 09:22:33;;;;;;;;;;;;;;;;;;4948642;29;19915;-81
2022/12/05 09:24:59;;;;;;;;;;;;;;;;;;4938478;29;19925;-80
2022/12/05 09:27:25;;;;;;;;;;;;;;;;;;4968160;28;20009;-80
2022/12/05 09:29:50;;;;;;;;;;;;;;;;;;4960587;29;19918;-79
2022/12/05 09:32:15;;;;;;;;;;;;;;;;;;4957679;28;20313;-80
2022/12/05 09:34:41;;;;;;;;;;;;;;;;;;4957037;29;19970;-81
2022/12/05 09:37:06;;;;;;;;;;;;;;;;;;4957408;29;19914;-80
2022/12/05 09:39:32;;;;;;;;;;;;;;;;;;4957304;29;19930;-79
2022/12/05 09:42:03;;;;;;;;;;;;;;;;;;4938583;29;20068;-81
2022/12/05 09:44:29;;;;;;;;;;;;;;;;;;4956566;29;20385;-81
2022/12/05 09:46:54;;;;;;;;;;;;;;;;;;4957372;28;20021;-80
2022/12/05 09:49:20;;;;;;;;;;;;;;;;;;4958035;28;20374;-79
2022/12/05 09:51:45;;;;;;;;;;;;;;;;;;4941986;29;19899;-81
2022/12/05 09:54:11;;;;;;;;;;;;;;;;;;4957722;29;19925;-80
2022/12/05 09:56:36;;;;;;;;;;;;;;;;;;4960086;29;20409;-81
2022/12/05 09:59:01;;;;;;;;;;;;;;;;;;4956483;29;19914;-78
2022/12/05 10:01:27;;;;;;;;;;;;;;;;;;4934747;29;20009;-79
2022/12/05 10:03:52;;;;;;;;;;;;;;;;;;4950931;29;19910;-79
2022/12/05 10:06:18;;;;;;;;;;;;;;;;;;4953691;29;19915;-80
2022/12/05 10:08:43;;;;;;;;;;;;;;;;;;4934795;29;20351;-79
2022/12/05 10:11:08;;;;;;;;;;;;;;;;;;4944405;29;19974;-79
2022/12/05 10:13:34;;;;;;;;;;;;;;;;;;4950668;29;19922;-80
2022/12/05 10:15:59;;;;;;;;;;;;;;;;;;4947760;29;19915;-80
2022/12/05 10:18:24;;;;;;;;;;;;;;;;;;4947367;28;20295;-79
2022/12/05 10:20:50;;;;;;;;;;;;;;;;;;4956782;28;19915;-79
2022/12/05 10:23:15;;;;;;;;;;;;;;;;;;4944983;28;19926;-79
2022/12/05 10:25:41;;;;;;;;;;;;;;;;;;4953942;29;19925;-80
2022/12/05 10:28:06;;;;;;;;;;;;;;;;;;4957700;29;19915;-79
2022/12/05 10:30:31;;;;;;;;;;;;;;;;;;4955271;28;19914;-79
2022/12/05 10:32:57;;;;;;;;;;;;;;;;;;4956891;29;20289;-78
2022/12/05 10:35:22;;;;;;;;;;;;;;;;;;4940705;29;19921;-78
2022/12/05 10:37:48;;;;;;;;;;;;;;;;;;4956848;29;19911;-79
2022/12/05 10:40:14;;;;;;;;;;;;;;;;;;4957591;29;20449;-80
2022/12/05 10:42:39;;;;;;;;;;;;;;;;;;4956264;28;19915;-79
2022/12/05 10:45:04;;;;;;;;;;;;;;;;;;4957651;28;20302;-78
2022/12/05 10:47:30;;;;;;;;;;;;;;;;;;4957726;28;20001;-79
2022/12/05 10:49:56;;;;;;;;;;;;;;;;;;4957448;29;20374;-79
2022/12/05 10:52:21;;;;;;;;;;;;;;;;;;4961633;28;19969;-79
2022/12/05 10:54:47;;;;;;;;;;;;;;;;;;4943155;29;20002;-81
2022/12/05 10:57:12;;;;;;;;;;;;;;;;;;4956408;29;19938;-79
2022/12/05 10:59:37;;;;;;;;;;;;;;;;;;4939395;29;19921;-80
2022/12/05 11:02:03;;;;;;;;;;;;;;;;;;4941120;29;19969;-79
2022/12/05 11:04:28;;;;;;;;;;;;;;;;;;4940111;29;20374;-79
2022/12/05 11:06:54;;;;;;;;;;;;;;;;;;4956356;29;19969;-79
2022/12/05 11:09:19;;;;;;;;;;;;;;;;;;4957749;29;19918;-79
2022/12/05 11:11:44;;;;;;;;;;;;;;;;;;4940352;29;20374;-80
2022/12/05 11:14:10;;;;;;;;;;;;;;;;;;4956173;29;19914;-79
2022/12/05 11:16:35;;;;;;;;;;;;;;;;;;4940992;29;20002;-79
2022/12/05 11:21:07;;;;;;;;;;;;;;;;;;5069524;28;19955;-78
2022/12/05 11:23:33;;;;;;;;;;;;;;;;;;5049620;28;19913;-78
2022/12/05 11:25:58;;;;;;;;;;;;;;;;;;5039416;28;19916;-80
2022/12/05 11:28:24;;;;;;;;;;;;;;;;;;5052662;28;19913;-79
2022/12/05 11:30:49;;;;;;;;;;;;;;;;;;5062528;28;19913;-78
2022/12/05 11:33:15;;;;;;;;;;;;;;;;;;5060362;28;19916;-79
2022/12/05 11:35:40;;;;;;;;;;;;;;;;;;5054561;28;19917;-79
2022/12/05 11:38:06;;;;;;;;;;;;;;;;;;5057833;28;19897;-84
2022/12/05 11:40:31;;;;;;;;;;;;;;;;;;5075035;28;19909;-83
2022/12/05 11:42:57;;;;;;;;;;;;;;;;;;5088509;28;19940;-78
2022/12/05 11:45:22;;;;;;;;;;;;;;;;;;5077470;28;19912;-83
2022/12/05 11:47:48;;;;;;;;;;;;;;;;;;5088048;28;19897;-83
2022/12/05 11:50:13;;;;;;;;;;;;;;;;;;5054764;28;19933;-82
2022/12/05 11:52:39;;;;;;;;;;;;;;;;;;5069931;28;19964;-82
2022/12/05 11:55:04;;;;;;;;;;;;;;;;;;5069455;28;19913;-82
2022/12/05 11:57:30;;;;;;;;;;;;;;;;;;5053451;28;19920;-81
2022/12/05 11:59:55;;;;;;;;;;;;;;;;;;5086027;28;19937;-82
2022/12/05 12:02:20;;;;;;;;;;;;;;;;;;5083761;28;20380;-82
2022/12/05 12:04:46;;;;;;;;;;;;;;;;;;5060029;28;19912;-80
2022/12/05 12:07:12;;;;;;;;;;;;;;;;;;5064366;28;19909;-82
2022/12/05 12:09:37;;;;;;;;;;;;;;;;;;5074095;28;19917;-83
2022/12/05 12:12:13;;;;;;;;;;;;;;;;;;5073161;22;19909;-82
2022/12/05 12:14:39;;;;;;;;;;;;;;;;;;5058123;28;19944;-83
2022/12/05 12:17:07;;;;;;;;;;;;;;;;;;5073291;28;19984;-83
2022/12/05 12:19:34;;;;;;;;;;;;;;;;;;5047202;28;19991;-82
2022/12/05 12:22:00;;;;;;;;;;;;;;;;;;5038585;28;19999;-82
2022/12/05 12:24:33;;;;;;;;;;;;;;;;;;5032651;28;19917;-81
2022/12/05 12:26:59;;;;;;;;;;;;;;;;;;5052036;28;19940;-82
2022/12/05 12:29:24;;;;;;;;;;;;;;;;;;5068320;28;19897;-83
2022/12/05 12:31:50;;;;;;;;;;;;;;;;;;5062310;28;19921;-83
2022/12/05 12:34:16;;;;;;;;;;;;;;;;;;5027069;28;19913;-83
2022/12/05 12:36:42;;;;;;;;;;;;;;;;;;5060162;28;19913;-82
2022/12/05 12:39:07;;;;;;;;;;;;;;;;;;5039272;28;19921;-83
2022/12/05 12:41:33;;;;;;;;;;;;;;;;;;5044972;28;19953;-83
2022/12/05 12:44:00;;;;;;;;;;;;;;;;;;5041271;28;19920;-82
2022/12/05 12:46:26;;;;;;;;;;;;;;;;;;5041183;28;20438;-83
2022/12/05 12:48:52;;;;;;;;;;;;;;;;;;5058987;28;19952;-83
2022/12/05 12:51:18;;;;;;;;;;;;;;;;;;5041106;28;19913;-83
2022/12/05 12:53:44;;;;;;;;;;;;;;;;;;5040901;28;19913;-83
2022/12/05 12:56:10;;;;;;;;;;;;;;;;;;5056447;28;19917;-83
2022/12/05 12:58:35;;;;;;;;;;;;;;;;;;5039844;28;19913;-83
2022/12/05 13:01:01;;;;;;;;;;;;;;;;;;5057594;28;19953;-83
2022/12/05 13:03:27;;;;;;;;;;;;;;;;;;5057364;28;19913;-82
2022/12/05 13:05:53;;;;;;;;;;;;;;;;;;5057609;28;19913;-82
2022/12/05 13:08:18;;;;;;;;;;;;;;;;;;5055957;28;19920;-83
2022/12/05 13:10:44;;;;;;;;;;;;;;;;;;5054481;28;19901;-83
2022/12/05 13:13:09;;;;;;;;;;;;;;;;;;5037975;28;19917;-84
2022/12/05 13:15:43;;;;;;;;;;;;;;;;;;5021649;28;19917;-82
2022/12/05 13:18:08;;;;;;;;;;;;;;;;;;5055139;28;19913;-83
2022/12/05 13:20:35;;;;;;;;;;;;;;;;;;5057461;28;20409;-83
2022/12/05 13:23:01;;;;;;;;;;;;;;;;;;5057585;28;19925;-83
2022/12/05 13:25:27;;;;;;;;;;;;;;;;;;5057520;28;19913;-83
2022/12/05 13:27:57;;;;;;;;;;;;;;;;;;5025885;28;19924;-82
2022/12/05 13:30:26;;;;;;;;;;;;;;;;;;5021867;28;19902;-83
2022/12/05 13:32:56;;;;;;;;;;;;;;;;;;5043307;28;19941;-82
2022/12/05 13:43:51;;;;;;;;;;;;;;;;;;5055259;28;19971;-82
2022/12/05 13:46:18;;;;;;;;;;;;;;;;;;5055601;28;19979;-81
2022/12/05 13:48:45;;;;;;;;;;;;;;;;;;5057137;28;19913;-81
2022/12/05 13:51:12;;;;;;;;;;;;;;;;;;5041126;28;19920;-80
2022/12/05 13:53:39;;;;;;;;;;;;;;;;;;5040804;28;19910;-83
2022/12/05 13:56:04;;;;;;;;;;;;;;;;;;5057499;28;19964;-84
2022/12/05 13:58:30;;;;;;;;;;;;;;;;;;5058959;28;19897;-83
2022/12/05 14:00:57;;;;;;;;;;;;;;;;;;5026472;28;20022;-83
2022/12/05 14:03:23;;;;;;;;;;;;;;;;;;5022218;28;19909;-83
2022/12/05 14:05:50;;;;;;;;;;;;;;;;;;5023035;28;19921;-81
2022/12/05 14:08:16;;;;;;;;;;;;;;;;;;5006350;28;19918;-83
2022/12/05 14:10:42;;;;;;;;;;;;;;;;;;5040396;28;19970;-83
2022/12/05 14:13:10;;;;;;;;;;;;;;;;;;5056237;28;20367;-81
2022/12/05 14:15:36;;;;;;;;;;;;;;;;;;5052539;28;19923;-84
2022/12/05 14:18:08;;;;;;;;;;;;;;;;;;5040913;28;19902;-84
2022/12/05 14:23:10;;;;;;;;;;;;;;;;;;5194192;22;19922;-84
2022/12/05 14:25:37;;;;;;;;;;;;;;;;;;4983481;28;19902;-84
2022/12/05 14:28:03;;;;;;;;;;;;;;;;;;4999476;28;20308;-82
2022/12/05 14:30:29;;;;;;;;;;;;;;;;;;4983281;28;19914;-84
2022/12/05 14:32:57;;;;;;;;;;;;;;;;;;4979273;28;19930;-83
2022/12/05 14:35:23;;;;;;;;;;;;;;;;;;4978231;28;19925;-83
2022/12/05 14:37:49;;;;;;;;;;;;;;;;;;4996622;28;19902;-81
2022/12/05 14:42:56;;;;;;;;;;;;;;;;;;5270024;23;19950;-82
2022/12/05 14:45:46;;;;;;;;;;;;;;;;;;5009528;28;19913;-80
2022/12/05 14:48:14;;;;;;;;;;;;;;;;;;5023990;28;19897;-82
2022/12/05 14:50:40;;;;;;;;;;;;;;;;;;5023432;28;19940;-82
2022/12/05 14:53:07;;;;;;;;;;;;;;;;;;5042085;28;19925;-82
2022/12/05 14:55:35;;;;;;;;;;;;;;;;;;5041798;28;19905;-84
2022/12/05 15:00:46;;;;;;;;;;;;;;;;;;5017697;28;19910;-84
2022/12/05 15:22:06;;;;;;;;;;;;;;;;;;6001933;22;19917;-84
2022/12/05 15:24:34;;;;;;;;;;;;;;;;;;5107362;22;19978;-84
2022/12/05 15:27:00;;;;;;;;;;;;;;;;;;5049334;23;19909;-84
2022/12/05 15:29:32;;;;;;;;;;;;;;;;;;5022706;28;19980;-84
2022/12/05 16:10:46;;;;;;;;;;;;;;;;;;4999894;28;19917;-86
2022/12/05 16:13:12;;;;;;;;;;;;;;;;;;4985038;28;19914;-86
2022/12/05 16:15:38;;;;;;;;;;;;;;;;;;4968364;28;19977;-85
2022/12/05 16:28:52;;;;;;;;;;;;;;;;;;5995335;22;19933;-84
2022/12/05 20:38:34;;;;;;;;;;;;;;;;;;5976555;22;19918;-87
2022/12/05 20:47:10;;;;;;;;;;;;;;;;;;5958218;22;19910;-86
2022/12/05 21:15:21;;;;;;;;;;;;;;;;;;6099669;22;19920;-83
2022/12/05 21:25:42;;;;;;;;;;;;;;;;;;5154102;22;19913;-85
2022/12/05 21:38:47;;;;;;;;;;;;;;;;;;5419601;22;19910;-86
2022/12/05 21:41:13;;;;;;;;;;;;;;;;;;5028767;22;19953;-85
2022/12/05 21:46:21;;;;;;;;;;;;;;;;;;5074224;22;19910;-85
2022/12/05 21:48:51;;;;;;;;;;;;;;;;;;4988678;28;19941;-86
2022/12/05 21:51:18;;;;;;;;;;;;;;;;;;4972705;28;19977;-86
2022/12/05 21:59:48;;;;;;;;;;;;;;;;;;5952547;22;19951;-83
2022/12/05 22:04:56;;;;;;;;;;;;;;;;;;6083528;22;19919;-83
2022/12/05 22:15:49;;;;;;;;;;;;;;;;;;4992152;28;20397;-83
2022/12/05 22:18:16;;;;;;;;;;;;;;;;;;4945770;28;19914;-82
2022/12/05 22:20:43;;;;;;;;;;;;;;;;;;4958617;28;19918;-81
2022/12/05 22:23:11;;;;;;;;;;;;;;;;;;4964331;29;19922;-84
2022/12/05 22:25:45;;;;;;;;;;;;;;;;;;4940757;29;19918;-84
2022/12/05 22:28:14;;;;;;;;;;;;;;;;;;4957455;29;20364;-83
2022/12/05 22:33:58;;;;;;;;;;;;;;;;;;4998478;26;19910;-83
2022/12/05 22:52:32;;;;;;;;;;;;;;;;;;5023399;22;19926;-85
2022/12/05 22:57:44;;;;;;;;;;;;;;;;;;4997875;28;19922;-85
2022/12/05 23:03:00;;;;;;;;;;;;;;;;;;5770315;22;19932;-84
2022/12/05 23:16:20;;;;;;;;;;;;;;;;;;5685725;22;19928;-81
2022/12/05 23:26:55;;;;;;;;;;;;;;;;;;5145643;22;19926;-83
2022/12/05 23:29:23;;;;;;;;;;;;;;;;;;5585316;22;20041;-83
2022/12/05 23:37:07;;;;;;;;;;;;;;;;;;5512592;22;19918;-85
2022/12/05 23:42:16;;;;;;;;;;;;;;;;;;5548619;22;19961;-83
2022/12/05 23:44:45;;;;;;;;;;;;;;;;;;5002670;28;19908;-84
2022/12/05 23:47:16;;;;;;;;;;;;;;;;;;5003003;28;19922;-83
2022/12/05 23:52:29;;;;;;;;;;;;;;;;;;5197930;22;19977;-84
2022/12/05 23:54:58;;;;;;;;;;;;;;;;;;5080291;22;19933;-84
2022/12/05 23:57:25;;;;;;;;;;;;;;;;;;4986369;28;19902;-83
2022/12/05 23:59:51;;;;;;;;;;;;;;;;;;4969955;28;19958;-82
